CheckWX is a tool to help pilots better visualize weather data.  It is not intended as a substitute for an official pre-flight weather briefing.

06:05:03 UTC

DAUB TAF
Biskra Airport
Biskra, Algeria
TAF DAUB 240500Z 2406/2506 30010KT 9999 FEW033 PROB30 TEMPO 2406/2418 16015G25KT

Apr-24@
06:00 UTC

Apr-24 @ 06:00 UTC

Apr-25@
06:00 UTC

Apr-25 @ 06:00 UTC

TAF DAUB 240500Z 2406/2506 30010KT 9999 FEW033
Wind
  • 300° at 10 KTS
Cloud Levels
  • Few at 3,300' AGL

Apr-24@
06:00 UTC

Apr-24 @ 06:00 UTC

Apr-24@
18:00 UTC

Apr-24 @ 18:00 UTC

PROB30 TEMPO 2406/2418 16015G25KT

Temporary - 30% Likelihood

Temporary - 30% Likelihood during this time.

Wind
  • 160° at 15 KTS
  • {Gusting to 25 KTS